Portada
METAR-TAF:

METAR-TAF

Aeropuertos :

Granada, España

Base Aérea de Armilla

latitud: 37-08N, longitud: 003-38-08W, altitud: 700 m

Observación

El informe se hizo hace 1 hora y 10 minutos, a las 07:00 UTC
Viento 4 kt del sur-sureste
Temperatura 7°C
Humedad 76%
Presión 1026 hPa
Visibilidad 10 km o más
sin nubes por debajo de 1500 m y sin presencia de cumulonimbus.

METAR: LEGA 280700Z 16004KT CAVOK 07/03 Q1026

Hora: 10:10 (08:10 UTC)

Pronóstico

El informe se hizo hace 3 horas y 10 minutos, a las 05:00 UTC
Pronóstico válido del 28 a las 06 UTC al 28 a las 15 UTC
Viento 3 kt con dirección variable
Visibilidad 10 km o más
Escasas nubes a una altura de 3500 ft

TAF: LEGA 280500Z 2806/2815 VRB03KT 9999 FEW035

Observaciones y pronósticos meteorológicos de más de 4000 aeropuertos (mensajes METAR y TAF).

Los puntos amarillos y rojos representan las estaciones disponibles.

Ponga el ratón en el punto deseado para ver el nombre de la estación.

Haga clic para ver las observaciones y los pronósticos meteorológicos.

Para cambiar el mapa : haga clic en los botones verdes con una cruz de color negro para hacer un zoom, en el botón verde con un guión para alejar o en las flechas verdes para mapas adyacentes.


METAR-TAF: